Balmedie, United Kingdom
Current Conditions -  °F | °C
As of 8:20 PM on Friday 21 Nov 2014 (Local Time) from EGPD Reporting Station
Scattered Clouds Scattered Clouds  
Wind Chill: 41°   Ceiling: Unl
Heat Index: 48°   Visibility: 6mi
Dew Point: 43°   Wind: 20mph
Humidity: 82%   Direction: 150°SSE
Pressure: 29.97"   Gusts: NA
Location:  57.25°N, 2.06°W
Report Text: EGPD 212020Z 15017KT 9999 FEW017 SCT033 09/06 Q1015 NOSIG
Loading
Personal Weather Stations






























Interactive Weather Map New forecast layout! Learn more

10-Day Weather Forecast

Advertisements
Track Severe Weather on mobile